createdAt,value
2022-09-24T00:00:32.577Z,10.00
2022-09-24T00:03:01.699Z,9.50
2022-09-24T00:05:29.969Z,10.60
2022-09-24T00:07:59.144Z,10.50
2022-09-24T00:10:25.611Z,11.00
2022-09-24T00:12:52.095Z,10.50
2022-09-24T00:15:21.196Z,8.67
2022-09-24T00:17:47.598Z,10.00
2022-09-24T00:20:16.733Z,9.83
2022-09-24T00:22:43.202Z,12.50
2022-09-24T00:25:09.642Z,10.00
2022-09-24T00:27:36.089Z,12.00
2022-09-24T00:30:05.233Z,8.00
2022-09-24T00:32:32.465Z,10.75
2022-09-24T00:35:01.620Z,11.50
2022-09-24T00:37:29.860Z,10.20
2022-09-24T00:39:56.321Z,10.50
2022-09-24T00:42:22.798Z,10.50
2022-09-24T00:44:51.093Z,11.80
2022-09-24T00:47:19.370Z,11.40
2022-09-24T00:49:45.761Z,11.00
2022-09-24T00:52:14.071Z,10.60
2022-09-24T00:54:43.242Z,12.00
2022-09-24T00:57:11.532Z,12.60
2022-09-24T00:59:39.839Z,13.20
2022-09-24T01:02:06.331Z,12.00
2022-09-24T01:04:35.557Z,11.00
2022-09-24T01:07:02.073Z,14.00
2022-09-24T01:09:28.541Z,11.50
2022-09-24T01:11:55.815Z,12.67
2022-09-24T01:14:23.075Z,14.33
2022-09-24T01:16:50.355Z,12.00
2022-09-24T01:19:16.768Z,11.50
2022-09-24T01:21:43.988Z,13.00
2022-09-24T01:27:06.164Z,14.67
2022-09-24T01:29:32.583Z,14.50
2022-09-24T01:31:59.815Z,15.00
2022-09-24T01:34:26.334Z,13.50
2022-09-24T01:36:53.624Z,17.67
2022-09-24T01:42:06.040Z,11.40
2022-09-24T01:44:32.533Z,17.00
2022-09-24T01:46:59.889Z,14.67
2022-09-24T01:49:26.344Z,14.00
2022-09-24T01:51:53.664Z,13.33
2022-09-24T01:57:05.642Z,16.67
2022-09-24T01:59:32.882Z,15.67
2022-09-24T02:02:00.259Z,18.00
2022-09-24T02:04:27.535Z,15.33
2022-09-24T02:06:54.879Z,14.00
2022-09-24T02:12:06.202Z,15.00
2022-09-24T02:14:32.635Z,17.00
2022-09-24T02:16:59.049Z,13.00
2022-09-24T02:19:26.359Z,17.00
2022-09-24T02:21:52.744Z,14.00
2022-09-24T02:27:13.680Z,13.00
2022-09-24T02:29:40.947Z,15.67
2022-09-24T02:32:07.368Z,13.50
2022-09-24T02:34:34.720Z,12.33
2022-09-24T02:37:01.973Z,13.33
2022-09-24T02:42:13.246Z,15.00
2022-09-24T02:44:40.484Z,14.67
2022-09-24T02:47:06.905Z,16.50
2022-09-24T02:49:34.260Z,18.67
2022-09-24T02:52:01.537Z,16.00
2022-09-24T02:57:13.977Z,19.33
2022-09-24T02:59:40.391Z,17.00
2022-09-24T03:02:07.878Z,20.33
2022-09-24T03:04:35.630Z,18.00
2022-09-24T03:07:02.997Z,19.67
2022-09-24T03:12:25.075Z,19.33
2022-09-24T03:14:51.560Z,19.00
2022-09-24T03:17:17.998Z,20.50
2022-09-24T03:19:45.296Z,16.00
2022-09-24T03:22:11.739Z,22.00
2022-09-24T03:27:24.021Z,20.67
2022-09-24T03:29:50.425Z,18.50
2022-09-24T03:32:16.905Z,19.50
2022-09-24T03:34:43.324Z,20.00
2022-09-24T03:37:09.748Z,19.50
2022-09-24T03:42:30.478Z,21.00
2022-09-24T03:44:56.915Z,20.00
2022-09-24T03:47:23.348Z,21.00
2022-09-24T03:49:49.783Z,21.50
2022-09-24T03:52:17.140Z,19.00
2022-09-24T03:57:39.343Z,21.33
2022-09-24T04:00:06.707Z,20.00
2022-09-24T04:02:34.080Z,20.00
2022-09-24T04:05:00.628Z,25.00
2022-09-24T04:07:27.125Z,21.50
2022-09-24T04:12:39.258Z,22.67
2022-09-24T04:15:06.547Z,16.67
2022-09-24T04:17:33.027Z,25.00
2022-09-24T04:19:59.459Z,18.00
2022-09-24T04:22:25.891Z,18.00
2022-09-24T04:27:37.754Z,13.33
2022-09-24T04:30:04.141Z,14.00
2022-09-24T04:32:31.416Z,14.00
2022-09-24T04:34:58.643Z,15.67
2022-09-24T04:37:25.875Z,12.33
2022-09-24T04:42:47.101Z,17.33
2022-09-24T04:45:14.423Z,13.67
2022-09-24T04:47:40.874Z,14.00
2022-09-24T04:50:07.350Z,18.00
2022-09-24T04:52:33.808Z,19.50
2022-09-24T04:57:44.913Z,19.00
2022-09-24T05:00:11.355Z,19.50
2022-09-24T05:02:37.837Z,18.00
2022-09-24T05:05:05.317Z,19.33
2022-09-24T05:07:32.698Z,19.67
2022-09-24T05:12:45.146Z,21.33
2022-09-24T05:15:11.594Z,18.50
2022-09-24T05:17:38.973Z,17.33
2022-09-24T05:20:05.432Z,20.00
2022-09-24T05:22:31.929Z,21.50
2022-09-24T05:27:44.345Z,20.33
2022-09-24T05:30:10.775Z,22.50
2022-09-24T05:32:37.204Z,24.00
2022-09-24T05:35:03.740Z,23.00
2022-09-24T05:37:30.193Z,25.50
2022-09-24T05:42:50.607Z,24.50
2022-09-24T05:45:17.107Z,22.00
2022-09-24T05:47:44.484Z,21.00
2022-09-24T05:50:10.937Z,25.00
2022-09-24T05:52:38.325Z,22.33
2022-09-24T05:57:49.879Z,22.00
2022-09-24T06:00:17.232Z,19.00
2022-09-24T06:02:44.659Z,21.33
2022-09-24T06:05:11.125Z,16.50
2022-09-24T06:07:38.487Z,21.50
2022-09-24T06:12:50.643Z,19.33
2022-09-24T06:15:17.123Z,21.00
2022-09-24T06:17:43.600Z,21.50
2022-09-24T06:20:10.042Z,21.00
2022-09-24T06:22:37.421Z,20.67
2022-09-24T06:27:49.731Z,17.33
2022-09-24T06:30:16.165Z,21.00
2022-09-24T06:32:42.592Z,18.50
2022-09-24T06:35:09.012Z,16.50
2022-09-24T06:37:36.415Z,20.33
2022-09-24T06:40:02.856Z,21.50
2022-09-24T06:42:29.317Z,28.50
2022-09-24T06:44:55.785Z,23.00
2022-09-24T06:47:22.272Z,23.00
2022-09-24T06:49:49.644Z,23.67
2022-09-24T06:52:17.055Z,23.00
2022-09-24T06:54:44.458Z,20.00
2022-09-24T06:57:10.910Z,24.00
2022-09-24T06:59:37.345Z,22.00
2022-09-24T07:02:03.931Z,20.00
2022-09-24T07:04:31.352Z,20.33
2022-09-24T07:06:57.852Z,19.00
2022-09-24T07:09:24.294Z,23.00
2022-09-24T07:11:50.988Z,24.50
2022-09-24T07:14:17.732Z,20.00
2022-09-24T07:16:46.116Z,20.50
2022-09-24T07:19:13.704Z,15.00
2022-09-24T07:21:40.143Z,18.50
2022-09-24T07:24:06.667Z,21.00
2022-09-24T07:26:34.027Z,17.33
2022-09-24T07:29:01.446Z,16.67
2022-09-24T07:31:28.029Z,19.00
2022-09-24T07:33:54.519Z,18.50
2022-09-24T07:36:20.964Z,20.00
2022-09-24T07:38:48.334Z,18.67
2022-09-24T07:41:15.696Z,19.00
2022-09-24T07:43:42.138Z,21.50
2022-09-24T07:46:08.719Z,19.50
2022-09-24T07:48:35.296Z,16.50
2022-09-24T07:51:01.751Z,17.00
2022-09-24T07:53:29.085Z,15.00
2022-09-24T07:55:56.446Z,19.00
2022-09-24T08:01:17.945Z,18.67
2022-09-24T08:03:45.460Z,17.33
2022-09-24T08:06:12.856Z,17.33
2022-09-24T08:08:40.200Z,17.67
2022-09-24T08:11:07.630Z,18.00
2022-09-24T08:13:34.971Z,16.00
2022-09-24T08:16:01.454Z,18.00
2022-09-24T08:18:28.760Z,13.33
2022-09-24T08:20:55.173Z,14.50
2022-09-24T08:23:21.590Z,16.00
2022-09-24T08:25:48.911Z,13.00
2022-09-24T08:30:59.175Z,13.00
2022-09-24T08:33:25.619Z,14.00
2022-09-24T08:35:51.986Z,14.00
2022-09-24T08:38:18.391Z,15.00
2022-09-24T08:40:45.651Z,12.67
2022-09-24T08:46:07.912Z,12.20
2022-09-24T08:48:36.220Z,11.80
2022-09-24T08:51:02.650Z,10.50
2022-09-24T08:53:29.033Z,10.00
2022-09-24T08:55:55.376Z,3.00
2022-09-24T09:01:08.539Z,8.75
2022-09-24T09:03:37.710Z,10.67
2022-09-24T09:06:04.162Z,15.00
2022-09-24T09:08:55.057Z,11.00
2022-09-24T09:11:17.786Z,11.00
2022-09-24T09:16:28.840Z,8.75
2022-09-24T09:18:55.263Z,11.50
2022-09-24T09:21:21.679Z,11.00
2022-09-24T09:23:50.195Z,10.50
2022-09-24T09:26:16.601Z,10.50
2022-09-24T09:31:27.271Z,10.00
2022-09-24T09:33:53.705Z,8.00
2022-09-24T09:36:20.183Z,7.00
2022-09-24T09:38:46.501Z,4.00
2022-09-24T09:41:12.893Z,7.50
2022-09-24T09:46:23.254Z,7.00
2022-09-24T09:48:49.654Z,4.00
2022-09-24T09:51:20.024Z,6.00
2022-09-24T09:53:48.559Z,9.00
2022-09-24T09:56:15.757Z,6.00
2022-09-24T10:01:35.972Z,5.00
2022-09-24T10:04:02.355Z,6.00
2022-09-24T10:06:28.774Z,5.00
2022-09-24T10:08:55.120Z,5.67
2022-09-24T10:11:21.430Z,4.33
2022-09-24T10:16:41.952Z,4.33
2022-09-24T10:19:08.379Z,4.00
2022-09-24T10:21:34.695Z,5.00
2022-09-24T10:24:01.180Z,4.00
2022-09-24T10:26:27.601Z,3.67
2022-09-24T10:31:47.575Z,3.00
2022-09-24T10:34:13.994Z,2.00
2022-09-24T10:36:40.334Z,6.00
2022-09-24T10:39:06.673Z,6.00
2022-09-24T10:41:33.030Z,4.33
2022-09-24T10:46:44.123Z,7.00
2022-09-24T10:49:10.529Z,9.00
2022-09-24T10:51:36.879Z,9.00
2022-09-24T10:54:03.226Z,3.67
2022-09-24T10:56:29.565Z,4.33
2022-09-24T11:01:39.740Z,5.50
2022-09-24T11:04:06.223Z,7.67
2022-09-24T11:06:32.569Z,6.67
2022-09-24T11:08:58.881Z,6.00
2022-09-24T11:11:25.267Z,5.00
2022-09-24T11:16:36.068Z,5.00
2022-09-24T11:19:02.454Z,7.67
2022-09-24T11:21:28.815Z,8.33
2022-09-24T11:23:55.211Z,9.00
2022-09-24T11:26:21.559Z,9.00
2022-09-24T11:31:42.297Z,11.00
2022-09-24T11:34:08.930Z,10.00
2022-09-24T11:36:36.242Z,10.75
2022-09-24T11:39:02.713Z,12.00
2022-09-24T11:41:29.936Z,9.00
2022-09-24T11:46:43.139Z,9.40
2022-09-24T11:49:09.548Z,10.00
2022-09-24T11:51:35.920Z,8.00
2022-09-24T11:54:02.339Z,9.00
2022-09-24T11:56:28.741Z,7.67
2022-09-24T12:01:39.094Z,6.00
2022-09-24T12:04:05.473Z,5.67
2022-09-24T12:06:31.811Z,6.00
2022-09-24T12:08:58.129Z,4.00
2022-09-24T12:11:24.463Z,5.00
2022-09-24T12:13:50.781Z,3.67
2022-09-24T12:16:17.166Z,3.00
2022-09-24T12:18:46.309Z,4.67
2022-09-24T12:21:12.609Z,4.00
2022-09-24T12:23:38.918Z,3.00
2022-09-24T12:26:05.272Z,4.33
2022-09-24T12:28:31.657Z,4.00
2022-09-24T12:30:58.094Z,3.00
2022-09-24T12:33:24.466Z,3.00
2022-09-24T12:35:50.821Z,4.00
2022-09-24T12:38:17.161Z,4.00
2022-09-24T12:40:43.583Z,4.00
2022-09-24T12:43:09.978Z,3.00
2022-09-24T12:45:36.304Z,3.33
2022-09-24T12:48:02.620Z,3.33
2022-09-24T12:50:28.945Z,2.33
2022-09-24T12:52:55.246Z,3.00
2022-09-24T12:55:21.591Z,3.33
2022-09-24T12:57:47.909Z,3.33
2022-09-24T13:00:14.250Z,4.00
2022-09-24T13:02:40.685Z,2.33
2022-09-24T13:05:07.065Z,4.00
2022-09-24T13:07:33.396Z,3.67
2022-09-24T13:09:59.721Z,5.00
2022-09-24T13:12:26.043Z,5.00
2022-09-24T13:14:52.382Z,2.33
2022-09-24T13:17:18.693Z,3.67
2022-09-24T13:19:45.013Z,4.00
2022-09-24T13:22:11.354Z,4.00
2022-09-24T13:24:37.671Z,3.67
2022-09-24T13:27:04.043Z,5.00
2022-09-24T13:29:30.359Z,3.67
2022-09-24T13:34:40.812Z,5.67
2022-09-24T13:37:07.153Z,4.00
2022-09-24T13:39:33.555Z,6.00
2022-09-24T13:41:59.889Z,4.00
2022-09-24T13:44:26.219Z,4.00
2022-09-24T13:49:48.879Z,4.00
2022-09-24T13:52:15.237Z,4.00
2022-09-24T13:54:41.568Z,3.67
2022-09-24T13:57:07.892Z,5.00
2022-09-24T13:59:34.223Z,4.67
2022-09-24T14:04:54.542Z,3.00
2022-09-24T14:07:20.887Z,4.00
2022-09-24T14:09:47.218Z,4.00
2022-09-24T14:12:13.561Z,4.00
2022-09-24T14:14:39.892Z,4.00
2022-09-24T14:20:00.065Z,5.00
2022-09-24T14:22:26.460Z,5.00
2022-09-24T14:24:52.772Z,5.33
2022-09-24T14:27:19.971Z,5.00
2022-09-24T14:29:48.373Z,5.33
2022-09-24T14:34:59.035Z,4.67
2022-09-24T14:37:25.363Z,4.67
2022-09-24T14:39:51.942Z,5.00
2022-09-24T14:42:18.365Z,7.67
2022-09-24T14:44:44.647Z,5.00
2022-09-24T14:50:06.056Z,4.00
2022-09-24T14:52:32.387Z,4.00
2022-09-24T14:54:58.710Z,4.00
2022-09-24T14:57:25.072Z,4.00
2022-09-24T14:59:51.439Z,4.00
2022-09-24T15:05:13.386Z,4.00
2022-09-24T15:07:39.770Z,4.00
2022-09-24T15:10:06.108Z,5.67
2022-09-24T15:12:32.447Z,4.00
2022-09-24T15:14:58.790Z,4.67
2022-09-24T15:20:08.980Z,5.00
2022-09-24T15:22:35.329Z,3.00
2022-09-24T15:25:02.619Z,5.00
2022-09-24T15:27:29.213Z,4.33
2022-09-24T15:29:55.586Z,4.00
2022-09-24T15:35:06.060Z,5.00
2022-09-24T15:37:32.413Z,5.00
2022-09-24T15:39:58.751Z,5.00
2022-09-24T15:42:25.066Z,7.67
2022-09-24T15:44:51.391Z,4.00
2022-09-24T15:50:11.728Z,4.00
2022-09-24T15:52:38.114Z,4.00
2022-09-24T15:55:04.462Z,4.00
2022-09-24T15:57:30.799Z,4.00
2022-09-24T15:59:57.157Z,5.00
2022-09-24T16:05:07.613Z,6.00
2022-09-24T16:07:33.927Z,6.00
2022-09-24T16:10:00.284Z,6.00
2022-09-24T16:12:26.613Z,6.00
2022-09-24T16:14:52.936Z,5.33
2022-09-24T16:20:03.249Z,6.00
2022-09-24T16:22:29.558Z,5.00
2022-09-24T16:24:55.892Z,5.00
2022-09-24T16:27:22.318Z,5.00
2022-09-24T16:29:48.632Z,5.67
2022-09-24T16:35:08.839Z,6.00
2022-09-24T16:37:35.230Z,9.00
2022-09-24T16:40:01.635Z,8.00
2022-09-24T16:42:28.021Z,7.67
2022-09-24T16:44:55.242Z,8.75
2022-09-24T16:50:08.258Z,7.67
2022-09-24T16:52:34.639Z,10.00
2022-09-24T16:55:00.986Z,9.00
2022-09-24T16:57:28.216Z,9.25
2022-09-24T16:59:54.581Z,9.00
2022-09-24T17:05:19.676Z,10.60
2022-09-24T17:07:46.105Z,10.50
2022-09-24T17:10:13.317Z,7.50
2022-09-24T17:12:39.843Z,10.00
2022-09-24T17:15:07.056Z,10.25
2022-09-24T17:20:18.058Z,8.25
2022-09-24T17:22:44.593Z,9.67
2022-09-24T17:25:11.005Z,9.00
2022-09-24T17:27:37.383Z,9.00
2022-09-24T17:30:03.710Z,8.67
2022-09-24T17:35:14.781Z,6.00
2022-09-24T17:37:41.132Z,8.00
2022-09-24T17:40:07.590Z,9.00
2022-09-24T17:42:33.987Z,7.67
2022-09-24T17:45:01.194Z,9.50
2022-09-24T17:50:21.229Z,8.50
2022-09-24T17:52:48.490Z,11.00
2022-09-24T17:55:14.825Z,8.00
2022-09-24T17:57:41.303Z,11.00
2022-09-24T18:00:07.643Z,7.00
2022-09-24T18:05:17.899Z,11.00
2022-09-24T18:07:44.320Z,12.00
2022-09-24T18:10:11.566Z,9.50
2022-09-24T18:12:38.000Z,10.00
2022-09-24T18:15:04.515Z,11.00
2022-09-24T18:17:32.841Z,11.80
2022-09-24T18:19:59.336Z,12.00
2022-09-24T18:22:28.521Z,11.50
2022-09-24T18:24:54.958Z,13.00
2022-09-24T18:27:21.416Z,13.00
2022-09-24T18:29:47.921Z,12.00
2022-09-24T18:32:14.330Z,12.00
2022-09-24T18:34:40.843Z,13.00
2022-09-24T18:37:09.092Z,9.60
2022-09-24T18:39:39.061Z,11.29
2022-09-24T18:42:05.509Z,10.00
2022-09-24T18:44:33.768Z,9.80
2022-09-24T18:47:00.186Z,12.00
2022-09-24T18:49:27.413Z,10.00
2022-09-24T18:51:53.911Z,11.50
2022-09-24T18:54:20.402Z,12.00
2022-09-24T18:56:47.670Z,11.00
2022-09-24T18:59:14.399Z,13.00
2022-09-24T19:01:41.187Z,11.00
2022-09-24T19:04:07.745Z,15.00
2022-09-24T19:06:36.084Z,13.60
2022-09-24T19:09:02.580Z,9.33
2022-09-24T19:11:29.060Z,13.50
2022-09-24T19:13:55.629Z,13.00
2022-09-24T19:16:22.988Z,15.33
2022-09-24T19:18:49.468Z,12.00
2022-09-24T19:21:15.894Z,12.00
2022-09-24T19:23:42.312Z,17.00
2022-09-24T19:26:08.733Z,16.00
2022-09-24T19:28:35.129Z,16.50
2022-09-24T19:31:01.853Z,16.00
2022-09-24T19:33:29.217Z,14.67
2022-09-24T19:35:56.463Z,12.67
2022-09-24T19:38:22.892Z,13.00
2022-09-24T19:40:51.219Z,11.60
2022-09-24T19:43:17.674Z,11.00
2022-09-24T19:45:46.962Z,10.50
2022-09-24T19:48:14.249Z,10.67
2022-09-24T19:53:29.742Z,7.33
2022-09-24T19:55:56.075Z,1.00
2022-09-24T19:58:23.292Z,8.25
2022-09-24T20:00:52.505Z,8.33
2022-09-24T20:03:18.926Z,10.00
2022-09-24T20:08:40.257Z,8.00
2022-09-24T20:11:06.655Z,8.50
2022-09-24T20:13:32.994Z,9.00
2022-09-24T20:15:59.401Z,6.33
2022-09-24T20:18:25.784Z,7.00
2022-09-24T20:23:36.781Z,9.00
2022-09-24T20:26:03.116Z,7.00
2022-09-24T20:28:30.332Z,7.00
2022-09-24T20:30:56.762Z,9.67
2022-09-24T20:33:23.193Z,8.00
2022-09-24T20:38:33.443Z,10.00
2022-09-24T20:41:00.795Z,22.67
2022-09-24T20:43:28.071Z,15.00
2022-09-24T20:45:54.580Z,24.00
2022-09-24T20:48:21.956Z,19.00
2022-09-24T20:53:33.592Z,22.50
2022-09-24T20:56:00.112Z,12.00
2022-09-24T20:58:27.370Z,12.67
2022-09-24T21:00:53.865Z,14.00
2022-09-24T21:03:42.567Z,11.33
2022-09-24T21:09:01.443Z,12.00
2022-09-24T21:11:29.700Z,11.60
2022-09-24T21:13:56.103Z,10.50
2022-09-24T21:16:22.795Z,12.00
2022-09-24T21:18:50.067Z,11.25
2022-09-24T21:24:04.122Z,10.00
2022-09-24T21:26:31.365Z,11.00
2022-09-24T21:28:59.646Z,10.60
2022-09-24T21:31:29.546Z,11.71
2022-09-24T21:33:57.824Z,10.60
2022-09-24T21:39:10.936Z,11.67
2022-09-24T21:41:37.361Z,9.00
2022-09-24T21:44:03.818Z,9.00
2022-09-24T21:46:30.320Z,10.00
2022-09-24T21:48:58.650Z,10.40
2022-09-24T21:54:11.274Z,11.00
2022-09-24T21:56:37.756Z,11.50
2022-09-24T21:59:04.095Z,6.00
2022-09-24T22:01:31.395Z,12.67
2022-09-24T22:04:00.604Z,10.17
2022-09-24T22:09:20.926Z,14.50
2022-09-24T22:11:48.191Z,11.00
2022-09-24T22:14:14.603Z,11.00
2022-09-24T22:16:41.895Z,11.33
2022-09-24T22:19:09.156Z,13.00
2022-09-24T22:24:29.670Z,14.00
2022-09-24T22:26:56.977Z,15.00
2022-09-24T22:29:23.394Z,15.00
2022-09-24T22:31:49.800Z,15.00
2022-09-24T22:34:16.202Z,17.00
2022-09-24T22:39:27.302Z,14.00
2022-09-24T22:41:53.697Z,15.00
2022-09-24T22:44:21.029Z,16.33
2022-09-24T22:46:47.434Z,16.00
2022-09-24T22:49:14.741Z,14.67
2022-09-24T22:54:26.171Z,16.00
2022-09-24T22:56:52.607Z,16.50
2022-09-24T22:59:19.960Z,17.00
2022-09-24T23:01:46.511Z,17.00
2022-09-24T23:04:13.927Z,18.33
2022-09-24T23:09:35.193Z,18.50
2022-09-24T23:12:02.554Z,18.00
2022-09-24T23:14:28.976Z,13.00
2022-09-24T23:16:55.493Z,19.00
2022-09-24T23:19:22.897Z,17.00
2022-09-24T23:24:45.102Z,21.00
2022-09-24T23:27:11.544Z,17.00
2022-09-24T23:29:38.939Z,19.67
2022-09-24T23:32:06.319Z,20.67
2022-09-24T23:34:32.754Z,23.00
2022-09-24T23:39:44.175Z,19.67
2022-09-24T23:42:10.624Z,21.00
2022-09-24T23:44:37.077Z,21.00
2022-09-24T23:47:03.546Z,21.00
2022-09-24T23:49:30.903Z,19.67
2022-09-24T23:54:41.355Z,20.00
2022-09-24T23:57:07.922Z,21.50
2022-09-24T23:59:34.365Z,23.00
